sensor_id;sensor_type;location;lat;lon;timestamp;P1;durP1;ratioP1;P2;durP2;ratioP2
27618;SDS011;15039;50.830;4.730;2023-03-21T00:01:03;7.70;;;4.05;;
27618;SDS011;15039;50.830;4.730;2023-03-21T00:03:30;7.60;;;3.78;;
27618;SDS011;15039;50.830;4.730;2023-03-21T00:06:03;6.38;;;3.63;;
27618;SDS011;15039;50.830;4.730;2023-03-21T00:08:30;7.07;;;4.15;;
27618;SDS011;15039;50.830;4.730;2023-03-21T00:10:56;8.23;;;4.28;;
27618;SDS011;15039;50.830;4.730;2023-03-21T00:13:23;11.98;;;4.40;;
27618;SDS011;15039;50.830;4.730;2023-03-21T00:15:50;8.55;;;4.82;;
27618;SDS011;15039;50.830;4.730;2023-03-21T00:18:19;5.63;;;3.72;;
27618;SDS011;15039;50.830;4.730;2023-03-21T00:20:56;8.68;;;4.43;;
27618;SDS011;15039;50.830;4.730;2023-03-21T00:23:24;9.52;;;4.50;;
27618;SDS011;15039;50.830;4.730;2023-03-21T00:25:50;7.82;;;4.13;;
27618;SDS011;15039;50.830;4.730;2023-03-21T00:28:15;7.32;;;3.83;;
27618;SDS011;15039;50.830;4.730;2023-03-21T00:30:41;6.07;;;3.65;;
27618;SDS011;15039;50.830;4.730;2023-03-21T00:33:07;7.40;;;3.72;;
27618;SDS011;15039;50.830;4.730;2023-03-21T00:35:32;5.68;;;3.45;;
27618;SDS011;15039;50.830;4.730;2023-03-21T00:37:58;11.60;;;3.95;;
27618;SDS011;15039;50.830;4.730;2023-03-21T00:40:23;8.93;;;4.22;;
27618;SDS011;15039;50.830;4.730;2023-03-21T00:42:49;7.35;;;3.88;;
27618;SDS011;15039;50.830;4.730;2023-03-21T00:45:15;10.68;;;4.55;;
27618;SDS011;15039;50.830;4.730;2023-03-21T00:47:43;8.07;;;4.22;;
27618;SDS011;15039;50.830;4.730;2023-03-21T00:50:09;10.55;;;4.75;;
27618;SDS011;15039;50.830;4.730;2023-03-21T00:52:35;9.23;;;4.47;;
27618;SDS011;15039;50.830;4.730;2023-03-21T00:55:02;7.70;;;3.65;;
27618;SDS011;15039;50.830;4.730;2023-03-21T00:57:29;8.15;;;3.90;;
27618;SDS011;15039;50.830;4.730;2023-03-21T00:59:54;9.20;;;4.30;;
27618;SDS011;15039;50.830;4.730;2023-03-21T01:02:22;7.93;;;4.57;;
27618;SDS011;15039;50.830;4.730;2023-03-21T01:04:51;4.63;;;3.65;;
27618;SDS011;15039;50.830;4.730;2023-03-21T01:07:18;6.90;;;3.55;;
27618;SDS011;15039;50.830;4.730;2023-03-21T01:09:43;8.60;;;4.00;;
27618;SDS011;15039;50.830;4.730;2023-03-21T01:12:09;8.38;;;3.72;;
27618;SDS011;15039;50.830;4.730;2023-03-21T01:14:35;7.10;;;3.80;;
27618;SDS011;15039;50.830;4.730;2023-03-21T01:17:01;7.78;;;3.80;;
27618;SDS011;15039;50.830;4.730;2023-03-21T01:19:26;6.13;;;3.38;;
27618;SDS011;15039;50.830;4.730;2023-03-21T01:21:56;8.50;;;3.65;;
27618;SDS011;15039;50.830;4.730;2023-03-21T01:26:47;7.00;;;3.50;;
27618;SDS011;15039;50.830;4.730;2023-03-21T01:29:13;6.47;;;4.10;;
27618;SDS011;15039;50.830;4.730;2023-03-21T01:31:39;8.13;;;4.45;;
27618;SDS011;15039;50.830;4.730;2023-03-21T01:34:04;10.07;;;4.20;;
27618;SDS011;15039;50.830;4.730;2023-03-21T01:36:30;6.60;;;3.60;;
27618;SDS011;15039;50.830;4.730;2023-03-21T01:38:56;9.40;;;4.07;;
27618;SDS011;15039;50.830;4.730;2023-03-21T01:43:52;7.13;;;3.55;;
27618;SDS011;15039;50.830;4.730;2023-03-21T01:46:30;7.07;;;3.97;;
27618;SDS011;15039;50.830;4.730;2023-03-21T01:51:36;9.40;;;3.90;;
27618;SDS011;15039;50.830;4.730;2023-03-21T01:54:05;8.05;;;3.65;;
27618;SDS011;15039;50.830;4.730;2023-03-21T01:56:34;9.77;;;4.45;;
27618;SDS011;15039;50.830;4.730;2023-03-21T01:59:08;8.13;;;4.00;;
27618;SDS011;15039;50.830;4.730;2023-03-21T02:01:38;9.88;;;4.25;;
27618;SDS011;15039;50.830;4.730;2023-03-21T02:04:06;10.53;;;4.60;;
27618;SDS011;15039;50.830;4.730;2023-03-21T02:06:38;12.65;;;4.32;;
27618;SDS011;15039;50.830;4.730;2023-03-21T02:09:29;10.48;;;4.78;;
27618;SDS011;15039;50.830;4.730;2023-03-21T02:11:57;7.20;;;4.18;;
27618;SDS011;15039;50.830;4.730;2023-03-21T02:14:24;9.25;;;4.28;;
27618;SDS011;15039;50.830;4.730;2023-03-21T02:16:56;10.90;;;5.03;;
27618;SDS011;15039;50.830;4.730;2023-03-21T02:25:30;6.43;;;3.85;;
27618;SDS011;15039;50.830;4.730;2023-03-21T02:31:05;6.40;;;3.97;;
27618;SDS011;15039;50.830;4.730;2023-03-21T02:37:02;9.07;;;3.80;;
27618;SDS011;15039;50.830;4.730;2023-03-21T02:39:41;8.35;;;4.10;;
27618;SDS011;15039;50.830;4.730;2023-03-21T02:42:27;8.93;;;3.38;;
27618;SDS011;15039;50.830;4.730;2023-03-21T02:45:10;10.68;;;4.05;;
27618;SDS011;15039;50.830;4.730;2023-03-21T02:48:17;12.13;;;4.75;;
27618;SDS011;15039;50.830;4.730;2023-03-21T02:50:41;8.05;;;3.95;;
27618;SDS011;15039;50.830;4.730;2023-03-21T02:53:11;9.18;;;3.95;;
27618;SDS011;15039;50.830;4.730;2023-03-21T02:58:07;11.55;;;3.88;;
27618;SDS011;15039;50.830;4.730;2023-03-21T03:00:35;5.70;;;3.13;;
27618;SDS011;15039;50.830;4.730;2023-03-21T03:03:02;5.90;;;2.75;;
27618;SDS011;15039;50.830;4.730;2023-03-21T03:05:29;5.75;;;2.33;;
27618;SDS011;15039;50.830;4.730;2023-03-21T03:13:10;5.72;;;1.90;;
27618;SDS011;15039;50.830;4.730;2023-03-21T03:15:52;4.40;;;1.50;;
27618;SDS011;15039;50.830;4.730;2023-03-21T03:18:53;5.93;;;1.70;;
27618;SDS011;15039;50.830;4.730;2023-03-21T03:21:23;5.57;;;1.73;;
27618;SDS011;15039;50.830;4.730;2023-03-21T03:23:51;5.60;;;1.95;;
27618;SDS011;15039;50.830;4.730;2023-03-21T03:26:43;4.43;;;2.28;;
27618;SDS011;15039;50.830;4.730;2023-03-21T03:29:20;8.73;;;1.80;;
27618;SDS011;15039;50.830;4.730;2023-03-21T03:34:17;8.43;;;2.00;;
27618;SDS011;15039;50.830;4.730;2023-03-21T03:36:46;5.35;;;2.28;;
27618;SDS011;15039;50.830;4.730;2023-03-21T03:39:15;8.95;;;2.65;;
27618;SDS011;15039;50.830;4.730;2023-03-21T03:41:46;6.72;;;2.83;;
27618;SDS011;15039;50.830;4.730;2023-03-21T03:44:29;7.85;;;3.17;;
27618;SDS011;15039;50.830;4.730;2023-03-21T03:47:09;4.95;;;3.10;;
27618;SDS011;15039;50.830;4.730;2023-03-21T03:49:56;7.20;;;3.22;;
27618;SDS011;15039;50.830;4.730;2023-03-21T03:52:43;12.38;;;4.57;;
27618;SDS011;15039;50.830;4.730;2023-03-21T03:55:17;8.77;;;4.32;;
27618;SDS011;15039;50.830;4.730;2023-03-21T03:57:46;11.05;;;4.40;;
27618;SDS011;15039;50.830;4.730;2023-03-21T04:00:12;9.48;;;3.85;;
27618;SDS011;15039;50.830;4.730;2023-03-21T04:02:40;8.80;;;3.92;;
27618;SDS011;15039;50.830;4.730;2023-03-21T04:05:06;9.50;;;4.05;;
27618;SDS011;15039;50.830;4.730;2023-03-21T04:07:32;7.30;;;4.20;;
27618;SDS011;15039;50.830;4.730;2023-03-21T04:09:57;9.02;;;4.22;;
27618;SDS011;15039;50.830;4.730;2023-03-21T04:12:23;6.45;;;3.92;;
27618;SDS011;15039;50.830;4.730;2023-03-21T04:14:49;9.32;;;3.88;;
27618;SDS011;15039;50.830;4.730;2023-03-21T04:17:15;12.30;;;3.95;;
27618;SDS011;15039;50.830;4.730;2023-03-21T04:19:41;10.18;;;4.38;;
27618;SDS011;15039;50.830;4.730;2023-03-21T04:22:07;10.32;;;4.07;;
27618;SDS011;15039;50.830;4.730;2023-03-21T04:24:33;13.85;;;4.57;;
27618;SDS011;15039;50.830;4.730;2023-03-21T04:27:01;7.78;;;3.50;;
27618;SDS011;15039;50.830;4.730;2023-03-21T04:29:27;9.50;;;3.85;;
27618;SDS011;15039;50.830;4.730;2023-03-21T04:31:53;6.60;;;3.78;;
27618;SDS011;15039;50.830;4.730;2023-03-21T04:34:19;10.27;;;4.43;;
27618;SDS011;15039;50.830;4.730;2023-03-21T04:36:48;8.50;;;4.00;;
27618;SDS011;15039;50.830;4.730;2023-03-21T04:39:14;12.93;;;4.05;;
27618;SDS011;15039;50.830;4.730;2023-03-21T04:41:41;8.65;;;4.80;;
27618;SDS011;15039;50.830;4.730;2023-03-21T04:44:08;10.23;;;4.63;;
27618;SDS011;15039;50.830;4.730;2023-03-21T04:46:34;10.27;;;4.72;;
27618;SDS011;15039;50.830;4.730;2023-03-21T04:49:00;13.43;;;4.78;;
27618;SDS011;15039;50.830;4.730;2023-03-21T04:51:26;8.82;;;4.05;;
27618;SDS011;15039;50.830;4.730;2023-03-21T04:53:52;9.90;;;4.20;;
27618;SDS011;15039;50.830;4.730;2023-03-21T04:58:58;12.70;;;4.43;;
27618;SDS011;15039;50.830;4.730;2023-03-21T05:01:25;9.63;;;4.68;;
27618;SDS011;15039;50.830;4.730;2023-03-21T05:03:54;13.10;;;4.90;;
27618;SDS011;15039;50.830;4.730;2023-03-21T05:08:50;9.93;;;4.15;;
27618;SDS011;15039;50.830;4.730;2023-03-21T05:11:16;9.23;;;4.53;;
27618;SDS011;15039;50.830;4.730;2023-03-21T05:13:41;9.55;;;4.15;;
27618;SDS011;15039;50.830;4.730;2023-03-21T05:16:07;11.13;;;4.32;;
27618;SDS011;15039;50.830;4.730;2023-03-21T05:18:33;11.30;;;5.00;;
27618;SDS011;15039;50.830;4.730;2023-03-21T05:21:03;8.43;;;4.15;;
27618;SDS011;15039;50.830;4.730;2023-03-21T05:23:31;9.40;;;3.92;;
27618;SDS011;15039;50.830;4.730;2023-03-21T05:26:03;9.10;;;3.75;;
27618;SDS011;15039;50.830;4.730;2023-03-21T05:28:30;10.02;;;4.13;;
27618;SDS011;15039;50.830;4.730;2023-03-21T05:30:55;8.95;;;3.70;;
27618;SDS011;15039;50.830;4.730;2023-03-21T05:33:21;7.05;;;3.53;;
27618;SDS011;15039;50.830;4.730;2023-03-21T05:35:49;7.65;;;3.55;;
27618;SDS011;15039;50.830;4.730;2023-03-21T05:38:15;7.80;;;3.58;;
27618;SDS011;15039;50.830;4.730;2023-03-21T05:40:44;9.27;;;3.65;;
27618;SDS011;15039;50.830;4.730;2023-03-21T05:43:11;4.55;;;3.20;;
27618;SDS011;15039;50.830;4.730;2023-03-21T05:45:36;7.78;;;3.22;;
27618;SDS011;15039;50.830;4.730;2023-03-21T05:48:02;8.45;;;3.30;;
27618;SDS011;15039;50.830;4.730;2023-03-21T05:50:28;5.78;;;3.60;;
27618;SDS011;15039;50.830;4.730;2023-03-21T05:52:53;8.32;;;3.65;;
27618;SDS011;15039;50.830;4.730;2023-03-21T05:55:19;6.45;;;3.35;;
27618;SDS011;15039;50.830;4.730;2023-03-21T05:57:45;7.03;;;3.40;;
27618;SDS011;15039;50.830;4.730;2023-03-21T06:00:11;7.35;;;3.33;;
27618;SDS011;15039;50.830;4.730;2023-03-21T06:02:37;7.10;;;3.40;;
27618;SDS011;15039;50.830;4.730;2023-03-21T06:05:03;9.02;;;3.55;;
27618;SDS011;15039;50.830;4.730;2023-03-21T06:07:30;6.50;;;3.08;;
27618;SDS011;15039;50.830;4.730;2023-03-21T06:09:56;6.07;;;2.95;;
27618;SDS011;15039;50.830;4.730;2023-03-21T06:12:22;5.97;;;2.92;;
27618;SDS011;15039;50.830;4.730;2023-03-21T06:14:47;7.25;;;3.13;;
27618;SDS011;15039;50.830;4.730;2023-03-21T06:17:13;6.07;;;2.70;;
27618;SDS011;15039;50.830;4.730;2023-03-21T06:19:39;7.28;;;3.05;;
27618;SDS011;15039;50.830;4.730;2023-03-21T06:22:05;6.35;;;2.85;;
27618;SDS011;15039;50.830;4.730;2023-03-21T06:24:31;5.93;;;2.72;;
27618;SDS011;15039;50.830;4.730;2023-03-21T06:26:56;6.05;;;3.20;;
27618;SDS011;15039;50.830;4.730;2023-03-21T06:29:22;6.85;;;2.88;;
27618;SDS011;15039;50.830;4.730;2023-03-21T06:31:48;4.88;;;2.97;;
27618;SDS011;15039;50.830;4.730;2023-03-21T06:34:13;6.85;;;3.30;;
27618;SDS011;15039;50.830;4.730;2023-03-21T06:36:39;9.80;;;3.33;;
27618;SDS011;15039;50.830;4.730;2023-03-21T06:39:05;8.20;;;3.45;;
27618;SDS011;15039;50.830;4.730;2023-03-21T06:41:32;4.10;;;2.60;;
27618;SDS011;15039;50.830;4.730;2023-03-21T06:43:58;6.13;;;2.60;;
27618;SDS011;15039;50.830;4.730;2023-03-21T06:46:23;5.57;;;2.67;;
27618;SDS011;15039;50.830;4.730;2023-03-21T06:48:52;8.27;;;3.22;;
27618;SDS011;15039;50.830;4.730;2023-03-21T06:51:18;4.75;;;2.97;;
27618;SDS011;15039;50.830;4.730;2023-03-21T06:53:44;6.22;;;2.67;;
27618;SDS011;15039;50.830;4.730;2023-03-21T06:56:10;6.32;;;3.08;;
27618;SDS011;15039;50.830;4.730;2023-03-21T06:58:37;7.10;;;2.80;;
27618;SDS011;15039;50.830;4.730;2023-03-21T07:01:03;6.13;;;2.90;;
27618;SDS011;15039;50.830;4.730;2023-03-21T07:03:31;7.72;;;2.97;;
27618;SDS011;15039;50.830;4.730;2023-03-21T07:05:57;6.65;;;2.72;;
27618;SDS011;15039;50.830;4.730;2023-03-21T07:08:22;5.93;;;2.90;;
27618;SDS011;15039;50.830;4.730;2023-03-21T07:10:48;8.63;;;3.10;;
27618;SDS011;15039;50.830;4.730;2023-03-21T07:13:14;5.50;;;2.60;;
27618;SDS011;15039;50.830;4.730;2023-03-21T07:15:40;7.15;;;2.92;;
27618;SDS011;15039;50.830;4.730;2023-03-21T07:18:07;5.00;;;2.60;;
27618;SDS011;15039;50.830;4.730;2023-03-21T07:20:33;6.13;;;2.58;;
27618;SDS011;15039;50.830;4.730;2023-03-21T07:23:02;6.38;;;2.72;;
27618;SDS011;15039;50.830;4.730;2023-03-21T07:25:28;4.38;;;2.47;;
27618;SDS011;15039;50.830;4.730;2023-03-21T07:27:54;6.60;;;2.55;;
27618;SDS011;15039;50.830;4.730;2023-03-21T07:30:20;9.18;;;3.22;;
27618;SDS011;15039;50.830;4.730;2023-03-21T07:32:46;7.35;;;2.58;;
27618;SDS011;15039;50.830;4.730;2023-03-21T07:35:13;6.18;;;2.58;;
27618;SDS011;15039;50.830;4.730;2023-03-21T07:37:39;6.07;;;2.60;;
27618;SDS011;15039;50.830;4.730;2023-03-21T07:40:06;5.65;;;2.47;;
27618;SDS011;15039;50.830;4.730;2023-03-21T07:42:37;8.93;;;3.00;;
27618;SDS011;15039;50.830;4.730;2023-03-21T07:45:04;5.53;;;2.67;;
27618;SDS011;15039;50.830;4.730;2023-03-21T07:47:30;3.88;;;2.47;;
27618;SDS011;15039;50.830;4.730;2023-03-21T07:49:56;5.60;;;2.55;;
27618;SDS011;15039;50.830;4.730;2023-03-21T07:52:22;4.68;;;2.53;;
27618;SDS011;15039;50.830;4.730;2023-03-21T07:54:48;4.75;;;2.75;;
27618;SDS011;15039;50.830;4.730;2023-03-21T07:57:13;5.80;;;2.70;;
27618;SDS011;15039;50.830;4.730;2023-03-21T07:59:39;5.63;;;2.75;;
27618;SDS011;15039;50.830;4.730;2023-03-21T08:02:05;5.85;;;2.60;;
27618;SDS011;15039;50.830;4.730;2023-03-21T08:04:31;5.75;;;2.80;;
27618;SDS011;15039;50.830;4.730;2023-03-21T08:06:58;4.13;;;2.55;;
27618;SDS011;15039;50.830;4.730;2023-03-21T08:09:24;5.40;;;2.50;;
27618;SDS011;15039;50.830;4.730;2023-03-21T08:11:50;6.97;;;2.90;;
27618;SDS011;15039;50.830;4.730;2023-03-21T08:14:15;5.05;;;2.83;;
27618;SDS011;15039;50.830;4.730;2023-03-21T08:16:41;6.15;;;2.90;;
27618;SDS011;15039;50.830;4.730;2023-03-21T08:19:06;6.50;;;2.80;;
27618;SDS011;15039;50.830;4.730;2023-03-21T08:21:32;4.85;;;3.05;;
27618;SDS011;15039;50.830;4.730;2023-03-21T08:23:57;7.63;;;2.83;;
27618;SDS011;15039;50.830;4.730;2023-03-21T08:26:23;4.22;;;2.40;;
27618;SDS011;15039;50.830;4.730;2023-03-21T08:28:50;6.35;;;2.80;;
27618;SDS011;15039;50.830;4.730;2023-03-21T08:31:16;4.53;;;2.63;;
27618;SDS011;15039;50.830;4.730;2023-03-21T08:33:42;4.47;;;2.70;;
27618;SDS011;15039;50.830;4.730;2023-03-21T08:36:08;6.38;;;2.63;;
27618;SDS011;15039;50.830;4.730;2023-03-21T08:38:34;7.40;;;2.70;;
27618;SDS011;15039;50.830;4.730;2023-03-21T08:41:00;6.38;;;2.72;;
27618;SDS011;15039;50.830;4.730;2023-03-21T08:43:29;4.35;;;2.60;;
27618;SDS011;15039;50.830;4.730;2023-03-21T08:45:55;7.55;;;3.42;;
27618;SDS011;15039;50.830;4.730;2023-03-21T08:48:21;7.13;;;2.45;;
27618;SDS011;15039;50.830;4.730;2023-03-21T08:50:46;4.93;;;2.45;;
27618;SDS011;15039;50.830;4.730;2023-03-21T08:53:12;7.18;;;2.92;;
27618;SDS011;15039;50.830;4.730;2023-03-21T08:55:38;4.75;;;2.47;;
27618;SDS011;15039;50.830;4.730;2023-03-21T08:58:04;6.07;;;3.10;;
27618;SDS011;15039;50.830;4.730;2023-03-21T09:00:30;7.32;;;2.70;;
27618;SDS011;15039;50.830;4.730;2023-03-21T09:02:56;6.97;;;2.92;;
27618;SDS011;15039;50.830;4.730;2023-03-21T09:05:22;6.30;;;3.05;;
27618;SDS011;15039;50.830;4.730;2023-03-21T09:07:50;6.80;;;2.78;;
27618;SDS011;15039;50.830;4.730;2023-03-21T09:10:17;6.38;;;2.70;;
27618;SDS011;15039;50.830;4.730;2023-03-21T09:12:45;6.93;;;2.80;;
27618;SDS011;15039;50.830;4.730;2023-03-21T09:15:12;6.80;;;3.00;;
27618;SDS011;15039;50.830;4.730;2023-03-21T09:17:38;4.72;;;2.58;;
27618;SDS011;15039;50.830;4.730;2023-03-21T09:20:09;6.53;;;2.53;;
27618;SDS011;15039;50.830;4.730;2023-03-21T09:22:43;3.75;;;2.60;;
27618;SDS011;15039;50.830;4.730;2023-03-21T09:25:11;6.60;;;3.05;;
27618;SDS011;15039;50.830;4.730;2023-03-21T09:27:38;4.13;;;2.60;;
27618;SDS011;15039;50.830;4.730;2023-03-21T09:30:04;4.55;;;2.30;;
27618;SDS011;15039;50.830;4.730;2023-03-21T09:32:31;8.32;;;3.13;;
27618;SDS011;15039;50.830;4.730;2023-03-21T09:34:58;3.92;;;2.38;;
27618;SDS011;15039;50.830;4.730;2023-03-21T09:37:24;5.32;;;2.40;;
27618;SDS011;15039;50.830;4.730;2023-03-21T09:39:49;5.43;;;2.55;;
27618;SDS011;15039;50.830;4.730;2023-03-21T09:48:16;7.60;;;3.08;;
27618;SDS011;15039;50.830;4.730;2023-03-21T09:50:55;5.65;;;2.60;;
27618;SDS011;15039;50.830;4.730;2023-03-21T09:53:23;7.38;;;2.67;;
27618;SDS011;15039;50.830;4.730;2023-03-21T09:55:51;7.57;;;2.38;;
27618;SDS011;15039;50.830;4.730;2023-03-21T09:58:29;7.53;;;2.65;;
27618;SDS011;15039;50.830;4.730;2023-03-21T10:03:51;6.78;;;2.70;;
27618;SDS011;15039;50.830;4.730;2023-03-21T10:06:18;4.60;;;2.38;;
27618;SDS011;15039;50.830;4.730;2023-03-21T10:08:51;4.47;;;2.17;;
27618;SDS011;15039;50.830;4.730;2023-03-21T10:11:23;3.40;;;2.13;;
27618;SDS011;15039;50.830;4.730;2023-03-21T10:16:28;4.05;;;2.30;;
27618;SDS011;15039;50.830;4.730;2023-03-21T10:18:57;5.10;;;2.58;;
27618;SDS011;15039;50.830;4.730;2023-03-21T10:21:27;7.68;;;2.28;;
27618;SDS011;15039;50.830;4.730;2023-03-21T10:23:55;3.90;;;2.20;;
27618;SDS011;15039;50.830;4.730;2023-03-21T10:26:24;4.88;;;2.20;;
27618;SDS011;15039;50.830;4.730;2023-03-21T10:28:53;7.10;;;2.30;;
27618;SDS011;15039;50.830;4.730;2023-03-21T10:31:22;4.40;;;2.40;;
27618;SDS011;15039;50.830;4.730;2023-03-21T10:33:50;4.90;;;2.50;;
27618;SDS011;15039;50.830;4.730;2023-03-21T10:36:22;2.85;;;1.98;;
27618;SDS011;15039;50.830;4.730;2023-03-21T10:39:00;4.15;;;2.05;;
27618;SDS011;15039;50.830;4.730;2023-03-21T10:41:29;5.85;;;2.05;;
27618;SDS011;15039;50.830;4.730;2023-03-21T10:44:11;5.80;;;2.30;;
27618;SDS011;15039;50.830;4.730;2023-03-21T10:46:48;5.25;;;2.38;;
27618;SDS011;15039;50.830;4.730;2023-03-21T10:49:16;4.55;;;2.42;;
27618;SDS011;15039;50.830;4.730;2023-03-21T10:51:42;5.65;;;2.10;;
27618;SDS011;15039;50.830;4.730;2023-03-21T10:54:13;3.92;;;2.20;;
27618;SDS011;15039;50.830;4.730;2023-03-21T10:59:55;5.45;;;2.45;;
27618;SDS011;15039;50.830;4.730;2023-03-21T11:02:32;3.85;;;2.35;;
27618;SDS011;15039;50.830;4.730;2023-03-21T11:05:04;3.92;;;1.90;;
27618;SDS011;15039;50.830;4.730;2023-03-21T11:07:42;3.65;;;2.15;;
27618;SDS011;15039;50.830;4.730;2023-03-21T11:10:12;3.58;;;2.25;;
27618;SDS011;15039;50.830;4.730;2023-03-21T11:12:41;4.93;;;2.00;;
27618;SDS011;15039;50.830;4.730;2023-03-21T11:18:18;3.63;;;1.83;;
27618;SDS011;15039;50.830;4.730;2023-03-21T11:20:53;5.07;;;1.75;;
27618;SDS011;15039;50.830;4.730;2023-03-21T11:23:20;4.82;;;1.75;;
27618;SDS011;15039;50.830;4.730;2023-03-21T11:25:50;5.05;;;1.95;;
27618;SDS011;15039;50.830;4.730;2023-03-21T11:28:24;4.70;;;2.10;;
27618;SDS011;15039;50.830;4.730;2023-03-21T11:30:57;4.65;;;2.08;;
27618;SDS011;15039;50.830;4.730;2023-03-21T11:36:03;3.53;;;1.90;;
27618;SDS011;15039;50.830;4.730;2023-03-21T11:38:33;3.35;;;1.65;;
27618;SDS011;15039;50.830;4.730;2023-03-21T11:41:02;4.22;;;1.83;;
27618;SDS011;15039;50.830;4.730;2023-03-21T11:43:37;5.28;;;1.80;;
27618;SDS011;15039;50.830;4.730;2023-03-21T11:48:40;4.97;;;2.00;;
27618;SDS011;15039;50.830;4.730;2023-03-21T11:51:21;3.55;;;1.77;;
27618;SDS011;15039;50.830;4.730;2023-03-21T11:56:43;3.90;;;1.80;;
27618;SDS011;15039;50.830;4.730;2023-03-21T12:01:50;3.78;;;1.67;;
27618;SDS011;15039;50.830;4.730;2023-03-21T12:21:02;4.45;;;1.80;;
27618;SDS011;15039;50.830;4.730;2023-03-21T12:26:21;3.88;;;2.15;;
27618;SDS011;15039;50.830;4.730;2023-03-21T12:31:50;6.38;;;2.50;;
27618;SDS011;15039;50.830;4.730;2023-03-21T12:39:40;4.53;;;2.33;;
27618;SDS011;15039;50.830;4.730;2023-03-21T12:44:55;2.92;;;1.90;;
27618;SDS011;15039;50.830;4.730;2023-03-21T12:47:27;5.72;;;2.35;;
27618;SDS011;15039;50.830;4.730;2023-03-21T12:49:55;6.80;;;2.60;;
27618;SDS011;15039;50.830;4.730;2023-03-21T12:52:36;5.55;;;2.10;;
27618;SDS011;15039;50.830;4.730;2023-03-21T12:57:41;5.65;;;2.10;;
27618;SDS011;15039;50.830;4.730;2023-03-21T13:03:25;4.22;;;1.90;;
27618;SDS011;15039;50.830;4.730;2023-03-21T13:06:01;6.43;;;2.03;;
27618;SDS011;15039;50.830;4.730;2023-03-21T13:08:41;3.78;;;1.75;;
27618;SDS011;15039;50.830;4.730;2023-03-21T13:11:09;2.10;;;1.48;;
27618;SDS011;15039;50.830;4.730;2023-03-21T13:16:54;6.13;;;1.88;;
27618;SDS011;15039;50.830;4.730;2023-03-21T13:24:58;3.70;;;2.00;;
27618;SDS011;15039;50.830;4.730;2023-03-21T13:27:30;5.43;;;1.75;;
27618;SDS011;15039;50.830;4.730;2023-03-21T13:29:59;4.28;;;1.55;;
27618;SDS011;15039;50.830;4.730;2023-03-21T13:37:51;2.78;;;1.70;;
27618;SDS011;15039;50.830;4.730;2023-03-21T13:40:23;3.63;;;1.80;;
27618;SDS011;15039;50.830;4.730;2023-03-21T13:42:54;3.60;;;1.90;;
27618;SDS011;15039;50.830;4.730;2023-03-21T13:45:26;4.90;;;1.83;;
27618;SDS011;15039;50.830;4.730;2023-03-21T13:47:56;3.50;;;2.35;;
27618;SDS011;15039;50.830;4.730;2023-03-21T13:55:27;2.80;;;1.70;;
27618;SDS011;15039;50.830;4.730;2023-03-21T13:57:54;2.85;;;1.60;;
27618;SDS011;15039;50.830;4.730;2023-03-21T14:03:07;3.80;;;1.77;;
27618;SDS011;15039;50.830;4.730;2023-03-21T14:05:37;5.03;;;1.60;;
27618;SDS011;15039;50.830;4.730;2023-03-21T14:08:04;5.65;;;1.80;;
27618;SDS011;15039;50.830;4.730;2023-03-21T14:10:38;4.57;;;1.92;;
27618;SDS011;15039;50.830;4.730;2023-03-21T14:13:07;2.80;;;1.70;;
27618;SDS011;15039;50.830;4.730;2023-03-21T14:15:41;3.78;;;1.88;;
27618;SDS011;15039;50.830;4.730;2023-03-21T14:18:14;2.53;;;1.40;;
27618;SDS011;15039;50.830;4.730;2023-03-21T14:20:43;2.92;;;1.80;;
27618;SDS011;15039;50.830;4.730;2023-03-21T14:23:12;3.22;;;1.98;;
27618;SDS011;15039;50.830;4.730;2023-03-21T14:25:39;2.10;;;1.60;;
27618;SDS011;15039;50.830;4.730;2023-03-21T14:28:12;4.10;;;1.80;;
27618;SDS011;15039;50.830;4.730;2023-03-21T14:30:46;4.40;;;1.75;;
27618;SDS011;15039;50.830;4.730;2023-03-21T14:35:45;2.30;;;1.50;;
27618;SDS011;15039;50.830;4.730;2023-03-21T14:38:19;2.85;;;1.80;;
27618;SDS011;15039;50.830;4.730;2023-03-21T14:40:47;3.10;;;1.83;;
27618;SDS011;15039;50.830;4.730;2023-03-21T14:43:15;2.55;;;1.80;;
27618;SDS011;15039;50.830;4.730;2023-03-21T14:45:45;2.70;;;1.98;;
27618;SDS011;15039;50.830;4.730;2023-03-21T14:48:13;4.78;;;1.92;;
27618;SDS011;15039;50.830;4.730;2023-03-21T14:50:55;4.03;;;2.22;;
27618;SDS011;15039;50.830;4.730;2023-03-21T14:53:29;3.38;;;1.90;;
27618;SDS011;15039;50.830;4.730;2023-03-21T14:56:02;5.07;;;2.10;;
27618;SDS011;15039;50.830;4.730;2023-03-21T14:58:32;4.05;;;2.03;;
27618;SDS011;15039;50.830;4.730;2023-03-21T15:01:02;3.30;;;2.33;;
27618;SDS011;15039;50.830;4.730;2023-03-21T15:03:32;3.47;;;2.22;;
27618;SDS011;15039;50.830;4.730;2023-03-21T15:05:58;4.93;;;2.60;;
27618;SDS011;15039;50.830;4.730;2023-03-21T15:08:26;4.95;;;2.03;;
27618;SDS011;15039;50.830;4.730;2023-03-21T15:11:00;4.53;;;3.03;;
27618;SDS011;15039;50.830;4.730;2023-03-21T15:13:28;7.07;;;3.15;;
27618;SDS011;15039;50.830;4.730;2023-03-21T15:16:16;5.68;;;2.78;;
27618;SDS011;15039;50.830;4.730;2023-03-21T15:18:43;6.57;;;3.58;;
27618;SDS011;15039;50.830;4.730;2023-03-21T15:21:15;5.32;;;3.78;;
27618;SDS011;15039;50.830;4.730;2023-03-21T15:23:47;6.97;;;4.18;;
27618;SDS011;15039;50.830;4.730;2023-03-21T15:26:18;5.82;;;4.00;;
27618;SDS011;15039;50.830;4.730;2023-03-21T15:28:49;7.72;;;3.92;;
27618;SDS011;15039;50.830;4.730;2023-03-21T15:31:21;5.70;;;4.57;;
27618;SDS011;15039;50.830;4.730;2023-03-21T15:36:20;4.72;;;3.67;;
27618;SDS011;15039;50.830;4.730;2023-03-21T15:38:49;4.50;;;3.45;;
27618;SDS011;15039;50.830;4.730;2023-03-21T15:41:16;4.97;;;3.70;;
27618;SDS011;15039;50.830;4.730;2023-03-21T15:46:47;4.47;;;3.47;;
27618;SDS011;15039;50.830;4.730;2023-03-21T15:52:14;4.78;;;3.40;;
27618;SDS011;15039;50.830;4.730;2023-03-21T15:57:24;4.00;;;3.20;;
27618;SDS011;15039;50.830;4.730;2023-03-21T15:59:54;4.38;;;3.30;;
27618;SDS011;15039;50.830;4.730;2023-03-21T16:02:24;3.80;;;3.35;;
27618;SDS011;15039;50.830;4.730;2023-03-21T16:07:24;6.55;;;3.38;;
27618;SDS011;15039;50.830;4.730;2023-03-21T16:09:55;5.43;;;3.58;;
27618;SDS011;15039;50.830;4.730;2023-03-21T16:12:24;5.75;;;3.38;;
27618;SDS011;15039;50.830;4.730;2023-03-21T16:14:50;5.78;;;3.38;;
27618;SDS011;15039;50.830;4.730;2023-03-21T16:19:52;4.30;;;3.60;;
27618;SDS011;15039;50.830;4.730;2023-03-21T16:22:18;3.35;;;3.05;;
27618;SDS011;15039;50.830;4.730;2023-03-21T16:24:45;4.28;;;3.42;;
27618;SDS011;15039;50.830;4.730;2023-03-21T16:27:11;5.45;;;3.50;;
27618;SDS011;15039;50.830;4.730;2023-03-21T16:29:37;4.63;;;3.80;;
27618;SDS011;15039;50.830;4.730;2023-03-21T16:32:03;6.45;;;4.05;;
27618;SDS011;15039;50.830;4.730;2023-03-21T16:34:30;4.15;;;3.42;;
27618;SDS011;15039;50.830;4.730;2023-03-21T16:36:56;4.78;;;3.45;;
27618;SDS011;15039;50.830;4.730;2023-03-21T16:39:23;5.88;;;3.88;;
27618;SDS011;15039;50.830;4.730;2023-03-21T16:41:52;4.03;;;3.40;;
27618;SDS011;15039;50.830;4.730;2023-03-21T16:44:18;7.13;;;4.05;;
27618;SDS011;15039;50.830;4.730;2023-03-21T16:46:44;8.70;;;3.90;;
27618;SDS011;15039;50.830;4.730;2023-03-21T16:49:21;5.43;;;4.15;;
27618;SDS011;15039;50.830;4.730;2023-03-21T16:51:48;5.88;;;4.68;;
27618;SDS011;15039;50.830;4.730;2023-03-21T16:54:14;8.52;;;4.88;;
27618;SDS011;15039;50.830;4.730;2023-03-21T16:56:42;7.35;;;5.28;;
27618;SDS011;15039;50.830;4.730;2023-03-21T16:59:18;6.47;;;4.50;;
27618;SDS011;15039;50.830;4.730;2023-03-21T17:01:44;5.43;;;4.45;;
27618;SDS011;15039;50.830;4.730;2023-03-21T17:04:11;5.43;;;4.40;;
27618;SDS011;15039;50.830;4.730;2023-03-21T17:06:43;7.60;;;4.22;;
27618;SDS011;15039;50.830;4.730;2023-03-21T17:09:14;5.22;;;3.83;;
27618;SDS011;15039;50.830;4.730;2023-03-21T17:11:41;6.38;;;4.18;;
27618;SDS011;15039;50.830;4.730;2023-03-21T17:14:07;5.18;;;4.05;;
27618;SDS011;15039;50.830;4.730;2023-03-21T17:16:34;4.45;;;3.50;;